Time;durP1;ratioP1;P1;durP2;ratioP2;P2;SDS_P1;SDS_P2;PMS_P1;PMS_P2;Temp;Humidity;BMP_temperature;BMP_pressure;BME280_temperature;BME280_humidity;BME280_pressure;Samples;Min_cycle;Max_cycle;Signal;HPM_P1;HPM_P2
2022/08/04 00:00:02;;;;;;;0.90;0.90;;;25.40;99.90;;;;;;5044762;28;20299;-68
2022/08/04 00:02:41;;;;;;;0.70;0.70;;;25.30;99.90;;;;;;5037439;28;21080;-67
2022/08/04 00:05:19;;;;;;;0.70;0.70;;;25.30;99.90;;;;;;5046842;28;20200;-68
2022/08/04 00:07:56;;;;;;;1.00;1.00;;;25.30;99.90;;;;;;5048105;28;20224;-70
2022/08/04 00:10:27;;;;;;;0.90;0.90;;;25.20;99.90;;;;;;5050610;28;20231;-68
2022/08/04 00:12:58;;;;;;;1.15;0.82;;;25.20;99.90;;;;;;5049666;28;20208;-66
2022/08/04 00:15:27;;;;;;;0.90;0.90;;;25.10;99.90;;;;;;5049501;28;20307;-68
2022/08/04 00:17:55;;;;;;;0.90;0.90;;;25.00;99.90;;;;;;5049708;28;20686;-69
2022/08/04 00:20:24;;;;;;;0.80;0.80;;;25.00;99.90;;;;;;5049460;28;20817;-67
2022/08/04 00:22:53;;;;;;;0.70;0.70;;;25.00;99.90;;;;;;5046563;28;20200;-67
2022/08/04 00:25:21;;;;;;;0.80;0.80;;;24.90;99.90;;;;;;5046706;28;20216;-67
2022/08/04 00:27:49;;;;;;;0.90;0.90;;;24.90;99.90;;;;;;5046311;28;20241;-68
2022/08/04 00:30:16;;;;;;;0.80;0.80;;;24.90;99.90;;;;;;5054284;28;20192;-67
2022/08/04 00:32:43;;;;;;;0.73;0.73;;;24.90;99.90;;;;;;5071578;28;20204;-68
2022/08/04 00:35:14;;;;;;;0.82;0.82;;;24.90;99.90;;;;;;5057161;28;20295;-67
2022/08/04 00:37:43;;;;;;;0.70;0.70;;;24.90;99.90;;;;;;5051625;28;20326;-67
2022/08/04 00:40:21;;;;;;;0.90;0.90;;;24.80;99.90;;;;;;5049962;28;20319;-66
2022/08/04 00:42:58;;;;;;;0.88;0.88;;;24.90;99.90;;;;;;5049400;28;20242;-68
2022/08/04 00:45:43;;;;;;;0.95;0.90;;;24.80;99.90;;;;;;5050823;28;20204;-68
2022/08/04 00:48:23;;;;;;;0.73;0.73;;;24.90;99.90;;;;;;5050982;28;20234;-68
2022/08/04 00:50:58;;;;;;;0.70;0.70;;;24.80;99.90;;;;;;5050302;28;20192;-67
2022/08/04 00:53:31;;;;;;;0.90;0.90;;;24.80;99.90;;;;;;5050148;28;20206;-68
2022/08/04 00:56:12;;;;;;;0.70;0.70;;;24.70;99.90;;;;;;5050115;28;20216;-67
2022/08/04 00:58:59;;;;;;;1.10;1.00;;;24.70;99.90;;;;;;5048661;28;20219;-67
2022/08/04 01:01:44;;;;;;;1.20;1.00;;;24.60;99.90;;;;;;5048873;28;20203;-69
2022/08/04 01:04:20;;;;;;;0.60;0.60;;;24.50;99.90;;;;;;5048095;28;20659;-68
2022/08/04 01:07:04;;;;;;;0.90;0.90;;;24.50;99.90;;;;;;5047124;28;20287;-67
2022/08/04 01:09:43;;;;;;;0.80;0.80;;;24.50;99.90;;;;;;5048691;28;20263;-68
2022/08/04 01:12:49;;;;;;;0.80;0.80;;;24.40;99.90;;;;;;5043075;28;20203;-69
2022/08/04 01:15:26;;;;;;;1.08;0.85;;;24.40;99.90;;;;;;5049398;28;20199;-69
2022/08/04 01:18:04;;;;;;;0.80;0.80;;;24.40;99.90;;;;;;5049521;28;20227;-68
2022/08/04 01:20:40;;;;;;;0.88;0.80;;;24.40;99.90;;;;;;5048490;28;20208;-69
2022/08/04 01:23:34;;;;;;;0.80;0.80;;;24.40;99.90;;;;;;5048612;28;20196;-69
2022/08/04 01:26:28;;;;;;;0.70;0.70;;;24.40;99.90;;;;;;5047858;28;20210;-68
2022/08/04 01:29:08;;;;;;;0.70;0.70;;;24.30;99.90;;;;;;5047592;28;20725;-68
2022/08/04 01:31:45;;;;;;;0.70;0.70;;;24.30;99.90;;;;;;5045186;28;20662;-68
2022/08/04 01:34:13;;;;;;;0.63;0.63;;;24.30;99.90;;;;;;5048771;28;20294;-68
2022/08/04 01:36:47;;;;;;;0.80;0.80;;;24.20;99.90;;;;;;5051280;28;20206;-69
2022/08/04 01:42:02;;;;;;;0.80;0.80;;;24.10;99.90;;;;;;5048094;28;20613;-68
2022/08/04 01:44:33;;;;;;;0.73;0.73;;;24.00;99.90;;;;;;5047309;28;20211;-67
2022/08/04 01:47:01;;;;;;;0.90;0.90;;;23.90;99.90;;;;;;5047789;28;20208;-67
2022/08/04 01:49:30;;;;;;;0.80;0.80;;;23.90;99.90;;;;;;5044209;28;21524;-68
2022/08/04 01:51:58;;;;;;;0.88;0.88;;;23.90;99.90;;;;;;5047789;28;20304;-68
2022/08/04 01:54:26;;;;;;;0.90;0.90;;;23.80;99.90;;;;;;5048192;28;20196;-68
2022/08/04 01:56:54;;;;;;;0.75;0.75;;;23.80;99.90;;;;;;5048268;28;20298;-69
2022/08/04 01:59:21;;;;;;;0.80;0.80;;;23.80;99.90;;;;;;5046991;28;20255;-68
2022/08/04 02:01:50;;;;;;;0.70;0.70;;;23.80;99.90;;;;;;5047671;28;20200;-68
2022/08/04 02:04:19;;;;;;;0.82;0.82;;;23.70;99.90;;;;;;5048967;28;20280;-67
2022/08/04 02:06:57;;;;;;;0.80;0.80;;;23.70;99.90;;;;;;5048672;28;20322;-68
2022/08/04 02:09:30;;;;;;;0.90;0.90;;;23.70;99.90;;;;;;5048419;28;20701;-70
2022/08/04 02:12:04;;;;;;;0.70;0.70;;;23.60;99.90;;;;;;5047787;28;20688;-71
2022/08/04 02:14:42;;;;;;;0.82;0.82;;;23.60;99.90;;;;;;5048449;28;20203;-70
2022/08/04 02:17:13;;;;;;;0.70;0.70;;;23.70;99.90;;;;;;5048886;28;20666;-68
2022/08/04 02:19:54;;;;;;;0.70;0.70;;;23.70;99.90;;;;;;5048678;28;20207;-68
2022/08/04 02:22:24;;;;;;;0.70;0.70;;;23.70;99.90;;;;;;5047135;28;20621;-68
2022/08/04 02:25:00;;;;;;;0.65;0.65;;;23.60;99.90;;;;;;5046950;28;20572;-68
2022/08/04 02:27:32;;;;;;;0.90;0.90;;;23.70;99.90;;;;;;5052202;28;20891;-68
2022/08/04 02:30:02;;;;;;;0.80;0.80;;;23.70;99.90;;;;;;5058532;28;20734;-68
2022/08/04 02:32:37;;;;;;;0.70;0.70;;;23.60;99.90;;;;;;5058999;28;20296;-68
2022/08/04 02:35:08;;;;;;;0.80;0.80;;;23.50;99.90;;;;;;5059850;28;20602;-68
2022/08/04 02:37:35;;;;;;;0.80;0.80;;;23.40;99.90;;;;;;5055143;28;20286;-68
2022/08/04 02:40:06;;;;;;;0.90;0.90;;;23.30;99.90;;;;;;5053325;28;20777;-68
2022/08/04 02:42:34;;;;;;;0.77;0.77;;;23.30;99.90;;;;;;5035198;28;20220;-69
2022/08/04 02:45:02;;;;;;;0.70;0.70;;;23.10;99.90;;;;;;5051450;28;21098;-66
2022/08/04 02:47:31;;;;;;;0.88;0.88;;;23.10;99.90;;;;;;5050985;28;20239;-68
2022/08/04 02:49:59;;;;;;;0.88;0.88;;;23.10;99.90;;;;;;5050762;28;20666;-68
2022/08/04 02:52:26;;;;;;;0.80;0.80;;;23.20;99.90;;;;;;5050923;28;20764;-67
2022/08/04 02:54:55;;;;;;;0.70;0.70;;;23.20;99.90;;;;;;5051223;28;20265;-67
2022/08/04 02:57:24;;;;;;;0.75;0.75;;;23.20;99.90;;;;;;5035623;28;20582;-68
2022/08/04 03:00:06;;;;;;;0.80;0.80;;;23.20;99.90;;;;;;5050277;28;20295;-67
2022/08/04 03:02:47;;;;;;;0.80;0.80;;;23.30;99.90;;;;;;5049851;28;20210;-68
2022/08/04 03:05:18;;;;;;;0.70;0.70;;;23.30;99.90;;;;;;5049575;28;20291;-69
2022/08/04 03:08:06;;;;;;;0.85;0.85;;;23.30;99.90;;;;;;5051226;28;20307;-68
2022/08/04 03:11:05;;;;;;;0.70;0.70;;;23.30;99.90;;;;;;5051741;28;20284;-67
2022/08/04 03:13:52;;;;;;;0.80;0.80;;;23.30;99.90;;;;;;5050355;28;20278;-68
2022/08/04 03:16:45;;;;;;;0.80;0.80;;;23.30;99.90;;;;;;5050658;28;20204;-69
2022/08/04 03:19:54;;;;;;;0.80;0.80;;;23.30;99.90;;;;;;5052590;28;20311;-68
2022/08/04 03:22:39;;;;;;;0.90;0.90;;;23.20;99.90;;;;;;5052828;28;20288;-67
2022/08/04 03:25:34;;;;;;;0.80;0.80;;;23.00;99.90;;;;;;5053416;28;20707;-68
2022/08/04 03:28:54;;;;;;;0.80;0.80;;;23.00;99.90;;;;;;5052808;28;20778;-68
2022/08/04 03:31:52;;;;;;;0.80;0.80;;;23.00;99.90;;;;;;5051884;28;20623;-68
2022/08/04 03:34:35;;;;;;;0.65;0.65;;;23.00;99.90;;;;;;5053073;28;20223;-67
2022/08/04 03:37:29;;;;;;;0.70;0.70;;;23.00;99.90;;;;;;5056736;28;20203;-68
2022/08/04 03:40:38;;;;;;;0.80;0.80;;;22.90;99.90;;;;;;5055508;28;20212;-67
2022/08/04 03:43:42;;;;;;;0.80;0.80;;;22.90;99.90;;;;;;5035355;28;20235;-67
2022/08/04 03:46:34;;;;;;;0.80;0.80;;;22.80;99.90;;;;;;5051886;28;20211;-68
2022/08/04 03:49:43;;;;;;;0.80;0.80;;;22.70;99.90;;;;;;5051761;28;20815;-71
2022/08/04 03:55:38;;;;;;;0.80;0.80;;;22.60;99.90;;;;;;5051562;28;20612;-70
2022/08/04 03:58:39;;;;;;;0.80;0.80;;;22.50;99.90;;;;;;5051024;28;20220;-69
2022/08/04 04:01:17;;;;;;;0.80;0.80;;;22.50;99.90;;;;;;5032888;28;20331;-68
2022/08/04 04:04:02;;;;;;;0.90;0.90;;;22.40;99.90;;;;;;5049810;28;20585;-68
2022/08/04 04:06:53;;;;;;;0.88;0.88;;;22.40;99.90;;;;;;5050227;28;20307;-67
2022/08/04 04:09:48;;;;;;;0.60;0.60;;;22.40;99.90;;;;;;5048869;28;20223;-68
2022/08/04 04:12:37;;;;;;;0.80;0.80;;;22.30;99.90;;;;;;5049892;28;20192;-68
2022/08/04 04:15:23;;;;;;;1.10;1.10;;;22.30;99.90;;;;;;5049156;28;20200;-67
2022/08/04 04:18:15;;;;;;;0.80;0.80;;;22.40;99.90;;;;;;5049906;28;20219;-66
2022/08/04 04:20:58;;;;;;;0.68;0.68;;;22.40;99.90;;;;;;5049025;28;20315;-68
2022/08/04 04:23:38;;;;;;;0.85;0.85;;;22.40;99.90;;;;;;5048736;28;20544;-68
2022/08/04 04:26:43;;;;;;;0.90;0.90;;;22.40;99.90;;;;;;5049442;28;20204;-73
2022/08/04 04:29:29;;;;;;;0.70;0.70;;;22.40;99.90;;;;;;5047220;28;20219;-70
2022/08/04 04:32:15;;;;;;;0.70;0.70;;;22.40;99.90;;;;;;5045133;28;20238;-69
2022/08/04 04:34:52;;;;;;;0.90;0.90;;;22.40;99.90;;;;;;5047608;28;20577;-68
2022/08/04 04:37:35;;;;;;;0.88;0.88;;;22.40;99.90;;;;;;5046499;28;20301;-67
2022/08/04 04:40:20;;;;;;;0.80;0.80;;;22.30;99.90;;;;;;5048277;28;20269;-67
2022/08/04 04:43:11;;;;;;;0.77;0.77;;;22.40;99.90;;;;;;5045931;28;20204;-67
2022/08/04 04:45:49;;;;;;;0.82;0.82;;;22.40;99.90;;;;;;5047731;28;20290;-71
2022/08/04 04:48:29;;;;;;;0.80;0.80;;;22.40;99.90;;;;;;5045684;28;20259;-70
2022/08/04 04:51:05;;;;;;;0.68;0.68;;;22.40;99.90;;;;;;5047174;28;20294;-71
2022/08/04 04:53:42;;;;;;;0.65;0.65;;;22.40;99.90;;;;;;5050725;28;20206;-68
2022/08/04 04:56:14;;;;;;;0.75;0.75;;;22.50;99.90;;;;;;5045709;28;20289;-71
2022/08/04 04:58:43;;;;;;;0.77;0.77;;;22.50;99.90;;;;;;5046633;28;20228;-69
2022/08/04 05:01:37;;;;;;;0.80;0.80;;;22.60;99.90;;;;;;5047276;28;20219;-69
2022/08/04 05:04:32;;;;;;;0.88;0.88;;;22.60;99.90;;;;;;5046850;28;20287;-69
2022/08/04 05:07:22;;;;;;;1.02;0.93;;;22.70;99.90;;;;;;5044540;28;20746;-68
2022/08/04 05:10:03;;;;;;;0.80;0.80;;;22.80;99.90;;;;;;5047444;28;20196;-67
2022/08/04 05:12:59;;;;;;;0.90;0.90;;;22.80;99.90;;;;;;5050572;28;20294;-69
2022/08/04 05:15:31;;;;;;;0.80;0.80;;;22.90;99.90;;;;;;5049544;28;20204;-68
2022/08/04 05:18:02;;;;;;;1.08;1.02;;;22.90;99.90;;;;;;5049583;28;20785;-71
2022/08/04 05:20:34;;;;;;;1.27;0.88;;;23.00;99.90;;;;;;5048627;28;20286;-69
2022/08/04 05:23:08;;;;;;;1.08;0.90;;;23.20;99.90;;;;;;5049058;28;20589;-69
2022/08/04 05:25:40;;;;;;;1.85;1.05;;;23.40;99.90;;;;;;5047751;28;20206;-69
2022/08/04 05:28:12;;;;;;;1.38;0.80;;;23.50;99.90;;;;;;5044564;28;20334;-70
2022/08/04 05:30:48;;;;;;;1.10;1.00;;;23.80;99.90;;;;;;5049140;28;20200;-69
2022/08/04 05:33:18;;;;;;;0.80;0.80;;;23.90;99.90;;;;;;5046824;28;20212;-68
2022/08/04 05:35:49;;;;;;;0.77;0.77;;;24.10;99.90;;;;;;5047744;28;20254;-70
2022/08/04 05:38:20;;;;;;;0.90;0.90;;;24.20;99.90;;;;;;5048072;28;20284;-70
2022/08/04 05:40:49;;;;;;;0.90;0.90;;;24.40;99.90;;;;;;5047270;28;20248;-70
2022/08/04 05:43:17;;;;;;;0.80;0.80;;;24.50;99.90;;;;;;5046592;28;20200;-67
2022/08/04 05:45:48;;;;;;;1.10;1.10;;;24.60;99.90;;;;;;5048231;28;20222;-69
2022/08/04 05:50:44;;;;;;;2.90;0.93;;;24.90;99.90;;;;;;5050327;28;20212;-62
2022/08/04 05:53:13;;;;;;;0.80;0.80;;;25.10;99.90;;;;;;5069580;28;20256;-59
2022/08/04 05:55:41;;;;;;;0.70;0.70;;;25.20;99.90;;;;;;5066614;28;20249;-61
2022/08/04 05:58:09;;;;;;;0.70;0.70;;;25.30;99.90;;;;;;5069838;28;20206;-61
2022/08/04 06:00:38;;;;;;;1.08;0.90;;;25.50;99.90;;;;;;5045736;28;20307;-61
2022/08/04 06:03:09;;;;;;;0.80;0.80;;;25.60;99.90;;;;;;5050167;28;20196;-62
2022/08/04 06:05:36;;;;;;;0.98;0.80;;;25.80;99.90;;;;;;5049387;28;20196;-69
2022/08/04 06:08:05;;;;;;;0.70;0.70;;;25.90;99.90;;;;;;5051248;28;20295;-63
2022/08/04 06:10:34;;;;;;;0.65;0.65;;;26.00;99.90;;;;;;5050844;28;20219;-61
2022/08/04 06:13:06;;;;;;;0.77;0.77;;;26.00;99.90;;;;;;5050850;28;20662;-62
2022/08/04 06:15:40;;;;;;;0.90;0.90;;;26.20;99.90;;;;;;5051508;28;20197;-61
2022/08/04 06:18:12;;;;;;;0.70;0.70;;;26.30;99.90;;;;;;5050640;28;20761;-62
2022/08/04 06:20:42;;;;;;;0.73;0.73;;;26.40;99.90;;;;;;5050606;28;20693;-61
2022/08/04 06:23:13;;;;;;;1.00;1.00;;;26.40;99.90;;;;;;5050101;28;20200;-61
2022/08/04 06:25:45;;;;;;;0.80;0.80;;;26.50;99.90;;;;;;5050423;28;20729;-61
2022/08/04 06:28:13;;;;;;;1.05;1.05;;;26.70;99.90;;;;;;5049527;28;20253;-62
2022/08/04 06:30:46;;;;;;;2.58;1.08;;;26.80;99.90;;;;;;5050049;28;20299;-62
2022/08/04 06:33:26;;;;;;;2.03;1.10;;;26.90;99.90;;;;;;5048578;28;20207;-62
2022/08/04 06:35:54;;;;;;;1.00;1.00;;;27.10;99.90;;;;;;5048465;28;20231;-62
2022/08/04 06:38:22;;;;;;;1.67;1.20;;;27.20;99.90;;;;;;5049387;28;20211;-62
2022/08/04 06:40:49;;;;;;;1.02;1.00;;;27.30;99.90;;;;;;5050355;28;20210;-62
2022/08/04 06:43:17;;;;;;;0.82;0.82;;;27.40;99.90;;;;;;5048927;28;20290;-60
2022/08/04 06:45:45;;;;;;;0.90;0.90;;;27.50;99.90;;;;;;5049603;28;20287;-61
2022/08/04 06:48:15;;;;;;;0.80;0.80;;;27.70;99.90;;;;;;5051384;28;20222;-61
2022/08/04 06:50:44;;;;;;;0.73;0.73;;;27.90;99.90;;;;;;5038596;28;20620;-61
2022/08/04 06:53:11;;;;;;;1.02;0.95;;;28.10;99.90;;;;;;5039581;28;20209;-61
2022/08/04 06:55:40;;;;;;;1.15;1.00;;;28.20;99.90;;;;;;5047168;28;20291;-61
2022/08/04 06:58:08;;;;;;;0.80;0.80;;;28.40;99.90;;;;;;5047096;28;20926;-61
2022/08/04 07:00:36;;;;;;;0.80;0.80;;;28.50;99.90;;;;;;5048960;28;20318;-62
2022/08/04 07:03:04;;;;;;;0.80;0.80;;;28.70;99.90;;;;;;5046808;28;20303;-62
2022/08/04 07:05:33;;;;;;;0.95;0.85;;;28.80;99.90;;;;;;5045467;28;20784;-61
2022/08/04 07:08:00;;;;;;;0.80;0.80;;;28.90;99.90;;;;;;5048499;28;20219;-61
2022/08/04 07:10:28;;;;;;;1.17;0.93;;;29.00;99.90;;;;;;5048827;28;20346;-61
2022/08/04 07:12:56;;;;;;;0.90;0.90;;;29.20;99.90;;;;;;5043809;28;20216;-61
2022/08/04 07:15:24;;;;;;;0.77;0.77;;;29.20;99.90;;;;;;5042005;28;20204;-61
2022/08/04 07:17:51;;;;;;;1.10;0.90;;;29.30;99.90;;;;;;5044342;28;20296;-61
2022/08/04 07:20:19;;;;;;;0.90;0.90;;;29.50;99.90;;;;;;5042088;28;20234;-61
2022/08/04 07:22:49;;;;;;;0.75;0.75;;;29.40;99.90;;;;;;5044462;28;20739;-61
2022/08/04 07:25:17;;;;;;;0.90;0.90;;;29.50;99.90;;;;;;5048617;28;20339;-61
2022/08/04 07:27:44;;;;;;;0.80;0.80;;;29.60;99.90;;;;;;5049855;28;20291;-61
2022/08/04 07:30:12;;;;;;;1.23;0.90;;;29.70;99.90;;;;;;5049753;28;20227;-62
2022/08/04 07:32:42;;;;;;;0.85;0.85;;;29.70;99.90;;;;;;5049316;28;20202;-61
2022/08/04 07:35:11;;;;;;;1.73;1.00;;;29.60;99.90;;;;;;5049091;28;20236;-61
2022/08/04 07:37:39;;;;;;;1.10;0.90;;;29.80;99.90;;;;;;5049603;28;20204;-61
2022/08/04 07:40:08;;;;;;;1.08;1.02;;;29.90;99.90;;;;;;5049775;28;20247;-62
2022/08/04 07:42:35;;;;;;;1.00;1.00;;;29.90;99.90;;;;;;5049486;28;20220;-61
2022/08/04 07:45:02;;;;;;;1.08;1.05;;;30.00;99.90;;;;;;5049286;28;20740;-61
2022/08/04 07:47:30;;;;;;;0.90;0.90;;;29.90;99.90;;;;;;5049126;28;20215;-64
2022/08/04 07:49:57;;;;;;;1.27;1.10;;;30.00;99.90;;;;;;5048570;28;20238;-61
2022/08/04 07:52:25;;;;;;;1.38;1.00;;;30.10;99.90;;;;;;5051325;28;20202;-61
2022/08/04 07:54:53;;;;;;;1.23;1.10;;;30.20;99.90;;;;;;5048561;28;20227;-61
2022/08/04 07:57:22;;;;;;;0.98;0.85;;;30.20;99.90;;;;;;5049174;28;20259;-61
2022/08/04 07:59:49;;;;;;;0.70;0.70;;;30.20;99.90;;;;;;5049535;28;20831;-61
2022/08/04 08:02:18;;;;;;;0.90;0.90;;;30.40;99.90;;;;;;5051853;28;20314;-62
2022/08/04 08:04:47;;;;;;;0.80;0.80;;;30.40;99.90;;;;;;5047295;28;20208;-62
2022/08/04 08:07:14;;;;;;;0.95;0.95;;;30.40;99.90;;;;;;5047497;28;20210;-61
2022/08/04 08:09:41;;;;;;;1.40;0.95;;;30.50;99.90;;;;;;5047505;28;20675;-61
2022/08/04 08:12:10;;;;;;;1.00;1.00;;;30.60;99.90;;;;;;5047431;28;20287;-61
2022/08/04 08:14:39;;;;;;;0.93;0.93;;;30.60;99.90;;;;;;5046873;28;20200;-60
2022/08/04 08:17:06;;;;;;;0.85;0.85;;;30.80;99.90;;;;;;5049004;28;20287;-63
2022/08/04 08:19:35;;;;;;;1.13;0.95;;;30.80;99.90;;;;;;5049424;28;20603;-61
2022/08/04 08:22:02;;;;;;;0.98;0.80;;;31.00;99.90;;;;;;5048463;28;20243;-61
2022/08/04 08:24:30;;;;;;;0.90;0.90;;;31.30;99.90;;;;;;5047311;28;20287;-63
2022/08/04 08:26:57;;;;;;;0.88;0.88;;;31.30;99.90;;;;;;5050427;28;20235;-61
2022/08/04 08:29:25;;;;;;;1.52;1.20;;;31.40;99.90;;;;;;5048251;28;20222;-62
2022/08/04 08:31:55;;;;;;;3.35;1.10;;;31.50;99.90;;;;;;5048757;28;20196;-64
2022/08/04 08:34:22;;;;;;;1.25;0.93;;;31.60;99.90;;;;;;5050076;28;20195;-62
2022/08/04 08:36:54;;;;;;;6.47;2.55;;;31.80;99.90;;;;;;5051127;28;20712;-62
2022/08/04 08:39:25;;;;;;;0.88;0.82;;;31.80;99.90;;;;;;5047888;28;20307;-61
2022/08/04 08:42:28;;;;;;;0.75;0.75;;;31.90;99.90;;;;;;5048388;28;20212;-62
2022/08/04 08:45:23;;;;;;;2.25;1.10;;;32.00;99.90;;;;;;5048617;28;20211;-62
2022/08/04 08:48:14;;;;;;;0.90;0.90;;;32.10;99.90;;;;;;5048921;28;20211;-61
2022/08/04 08:51:23;;;;;;;2.47;1.02;;;32.20;99.90;;;;;;5043704;28;20216;-61
2022/08/04 08:54:21;;;;;;;0.93;0.93;;;32.30;99.90;;;;;;5046309;28;20199;-61
2022/08/04 08:57:03;;;;;;;1.58;0.85;;;32.40;99.90;;;;;;5046464;28;20235;-61
2022/08/04 08:59:54;;;;;;;0.80;0.80;;;32.50;99.90;;;;;;5047862;28;20232;-62
2022/08/04 09:02:56;;;;;;;0.90;0.90;;;32.50;99.90;;;;;;5045711;28;20231;-63
2022/08/04 09:06:02;;;;;;;0.93;0.93;;;32.50;99.90;;;;;;5041492;28;20253;-60
2022/08/04 09:08:57;;;;;;;0.63;0.63;;;32.60;99.90;;;;;;4989574;28;20212;-67
2022/08/04 09:11:28;;;;;;;0.80;0.80;;;32.80;99.90;;;;;;5033497;28;20240;-63
2022/08/04 09:13:57;;;;;;;0.85;0.85;;;32.90;99.90;;;;;;5047107;28;20200;-62
2022/08/04 09:16:35;;;;;;;0.80;0.80;;;33.00;99.90;;;;;;5046783;28;20311;-62
2022/08/04 09:19:09;;;;;;;1.10;1.00;;;33.00;99.90;;;;;;5048890;28;20237;-62
2022/08/04 09:21:41;;;;;;;0.90;0.90;;;33.00;99.90;;;;;;5048807;28;20725;-62
2022/08/04 09:24:15;;;;;;;1.65;0.90;;;33.10;99.90;;;;;;5046818;28;20200;-61
2022/08/04 09:26:50;;;;;;;2.47;1.10;;;33.20;99.90;;;;;;5049015;28;20196;-62
2022/08/04 09:29:21;;;;;;;0.85;0.85;;;33.40;99.90;;;;;;5043006;28;20223;-62
2022/08/04 09:31:59;;;;;;;1.13;1.05;;;33.50;99.90;;;;;;5048799;28;20203;-62
2022/08/04 09:34:34;;;;;;;1.20;1.10;;;33.70;99.90;;;;;;5050077;28;20802;-62
2022/08/04 09:37:11;;;;;;;0.80;0.80;;;33.80;99.90;;;;;;5048172;28;20290;-63
2022/08/04 09:39:49;;;;;;;0.90;0.90;;;34.00;99.90;;;;;;5047718;28;20219;-63
2022/08/04 09:42:26;;;;;;;0.80;0.80;;;34.10;99.90;;;;;;5046723;28;20661;-63
2022/08/04 09:45:00;;;;;;;0.80;0.80;;;33.90;99.90;;;;;;5049347;28;20253;-63
2022/08/04 09:47:35;;;;;;;3.00;1.00;;;34.00;99.90;;;;;;5047985;28;20205;-62
2022/08/04 09:50:12;;;;;;;1.15;0.80;;;34.30;99.90;;;;;;5047757;28;20231;-63
2022/08/04 09:52:49;;;;;;;0.90;0.80;;;34.40;99.90;;;;;;5046485;28;20225;-63
2022/08/04 09:55:41;;;;;;;0.77;0.77;;;34.60;99.90;;;;;;5052263;28;20281;-63
2022/08/04 09:58:16;;;;;;;0.80;0.80;;;34.60;98.60;;;;;;5050796;28;20208;-63
2022/08/04 10:00:48;;;;;;;2.80;1.00;;;34.60;98.70;;;;;;5054431;28;20304;-62
2022/08/04 10:03:18;;;;;;;1.38;0.80;;;34.80;99.00;;;;;;5053169;28;20212;-62
2022/08/04 10:05:56;;;;;;;0.75;0.75;;;35.00;97.00;;;;;;5055900;28;20253;-63
2022/08/04 10:08:39;;;;;;;0.90;0.90;;;35.20;97.30;;;;;;5052113;28;20238;-62
2022/08/04 10:11:12;;;;;;;0.90;0.90;;;35.20;96.30;;;;;;5049455;28;20283;-63
2022/08/04 10:13:51;;;;;;;0.80;0.80;;;35.20;96.80;;;;;;5044014;28;20263;-63
2022/08/04 10:16:37;;;;;;;0.80;0.80;;;35.00;96.50;;;;;;5050202;28;20281;-63
2022/08/04 10:19:15;;;;;;;0.70;0.70;;;35.20;95.90;;;;;;5049733;28;20560;-62
2022/08/04 10:21:52;;;;;;;0.90;0.90;;;35.40;95.80;;;;;;5049437;28;20224;-62
2022/08/04 10:24:35;;;;;;;0.70;0.70;;;35.60;96.10;;;;;;5047831;28;20684;-63
2022/08/04 10:27:10;;;;;;;1.25;0.82;;;35.80;95.50;;;;;;5050994;28;20283;-62
2022/08/04 10:29:42;;;;;;;0.85;0.85;;;35.70;94.80;;;;;;5048751;28;20219;-62
2022/08/04 10:32:14;;;;;;;0.82;0.82;;;35.80;95.50;;;;;;5050796;28;20279;-62
2022/08/04 10:34:47;;;;;;;0.80;0.80;;;35.70;94.80;;;;;;5047384;28;20200;-62
2022/08/04 10:37:21;;;;;;;0.82;0.82;;;35.80;94.70;;;;;;5050592;28;20731;-62
2022/08/04 10:42:50;;;;;;;0.82;0.82;;;36.00;95.20;;;;;;5043832;28;20281;-62
2022/08/04 10:45:22;;;;;;;1.85;0.95;;;36.10;94.40;;;;;;5044091;28;20602;-62
2022/08/04 10:47:58;;;;;;;0.80;0.80;;;36.30;94.40;;;;;;5042729;28;21669;-62
2022/08/04 10:50:27;;;;;;;0.70;0.70;;;36.20;93.20;;;;;;5049257;28;20238;-62
2022/08/04 10:53:00;;;;;;;2.33;0.80;;;36.20;93.40;;;;;;5039251;28;20200;-62
2022/08/04 10:55:33;;;;;;;0.70;0.70;;;36.00;93.00;;;;;;5045398;28;20226;-63
2022/08/04 10:58:04;;;;;;;0.80;0.80;;;35.90;92.50;;;;;;5050202;28;20295;-62
2022/08/04 11:00:35;;;;;;;0.70;0.70;;;36.10;92.60;;;;;;5053197;28;20804;-62
2022/08/04 11:03:17;;;;;;;1.88;0.80;;;35.90;92.10;;;;;;5052890;28;20311;-62
2022/08/04 11:05:48;;;;;;;1.00;0.93;;;36.00;92.00;;;;;;5048462;28;20658;-62
2022/08/04 11:08:21;;;;;;;0.80;0.80;;;36.20;92.20;;;;;;5048351;28;20402;-62
2022/08/04 11:10:53;;;;;;;0.73;0.70;;;36.40;92.30;;;;;;5048759;28;21646;-62
2022/08/04 11:13:25;;;;;;;0.82;0.82;;;36.40;91.90;;;;;;5048323;28;20774;-62
2022/08/04 11:15:55;;;;;;;0.80;0.80;;;36.20;91.70;;;;;;5050236;28;20294;-62
2022/08/04 11:18:30;;;;;;;0.65;0.65;;;36.30;91.70;;;;;;5049598;28;20207;-62
2022/08/04 11:21:02;;;;;;;1.08;0.75;;;36.40;92.00;;;;;;5046395;28;20275;-62
2022/08/04 11:23:35;;;;;;;0.60;0.60;;;36.60;91.90;;;;;;5048436;28;20220;-62
2022/08/04 11:26:09;;;;;;;0.80;0.80;;;36.50;90.80;;;;;;5044600;28;20295;-62
2022/08/04 11:28:48;;;;;;;0.60;0.60;;;36.50;90.50;;;;;;5041467;28;20207;-62
2022/08/04 11:31:21;;;;;;;0.60;0.60;;;36.50;90.30;;;;;;5048670;28;20559;-62
2022/08/04 11:33:56;;;;;;;1.20;0.80;;;36.60;90.80;;;;;;5047059;28;20204;-62
2022/08/04 11:36:32;;;;;;;0.70;0.70;;;36.80;90.70;;;;;;5045434;28;20283;-63
2022/08/04 11:39:07;;;;;;;0.90;0.90;;;36.90;90.40;;;;;;5047765;28;20861;-63
2022/08/04 11:41:42;;;;;;;0.80;0.80;;;37.00;90.20;;;;;;5049387;28;20196;-63
2022/08/04 11:44:17;;;;;;;0.80;0.80;;;37.10;90.10;;;;;;5042600;28;20753;-63
2022/08/04 11:46:50;;;;;;;0.80;0.80;;;36.90;88.20;;;;;;5048365;28;20195;-64
2022/08/04 11:49:29;;;;;;;0.73;0.73;;;37.00;89.60;;;;;;5043560;28;20290;-63
2022/08/04 11:52:04;;;;;;;0.80;0.80;;;36.90;88.60;;;;;;5042295;28;20311;-62
2022/08/04 11:54:33;;;;;;;0.90;0.90;;;37.10;89.50;;;;;;5018654;28;20593;-62
2022/08/04 11:57:01;;;;;;;0.70;0.55;;;37.40;88.80;;;;;;5048487;28;20208;-62
2022/08/04 11:59:31;;;;;;;0.85;0.73;;;37.50;86.40;;;;;;5048222;28;20234;-62
2022/08/04 12:02:23;;;;;;;0.63;0.63;;;37.50;85.50;;;;;;5049131;28;20218;-63
2022/08/04 12:04:57;;;;;;;0.52;0.52;;;37.60;82.50;;;;;;5048396;28;20283;-63
2022/08/04 12:07:41;;;;;;;0.63;0.63;;;37.60;79.20;;;;;;5047701;28;20235;-62
2022/08/04 12:10:18;;;;;;;0.60;0.60;;;37.70;81.10;;;;;;5048827;28;20259;-63
2022/08/04 12:12:54;;;;;;;0.68;0.68;;;37.60;81.30;;;;;;5046957;28;20200;-63
2022/08/04 12:15:27;;;;;;;0.68;0.68;;;37.60;80.50;;;;;;5048722;28;20286;-62
2022/08/04 12:18:02;;;;;;;0.60;0.60;;;37.60;80.50;;;;;;5047907;28;20203;-62
2022/08/04 12:20:34;;;;;;;0.50;0.50;;;37.80;78.20;;;;;;5048340;28;20294;-61
2022/08/04 12:23:03;;;;;;;0.40;0.40;;;37.90;77.80;;;;;;5047271;28;20622;-61
2022/08/04 12:25:34;;;;;;;0.70;0.70;;;38.00;78.40;;;;;;5049565;28;20215;-61
2022/08/04 12:28:07;;;;;;;0.70;0.70;;;38.10;77.30;;;;;;5046169;28;20203;-61
2022/08/04 12:30:46;;;;;;;0.57;0.57;;;38.20;77.10;;;;;;5046286;28;20299;-64
2022/08/04 12:33:21;;;;;;;0.50;0.50;;;38.30;77.20;;;;;;5047359;28;20287;-63
2022/08/04 12:35:55;;;;;;;0.70;0.70;;;38.20;76.70;;;;;;5048500;28;20204;-63
2022/08/04 12:38:24;;;;;;;0.70;0.70;;;38.20;78.00;;;;;;5045311;28;20321;-62
2022/08/04 12:40:54;;;;;;;0.70;0.70;;;38.40;77.80;;;;;;5048419;28;20211;-63
2022/08/04 12:43:29;;;;;;;0.93;0.80;;;38.50;78.40;;;;;;5046955;28;20231;-62
2022/08/04 12:46:02;;;;;;;0.70;0.70;;;38.60;76.60;;;;;;5049982;28;20290;-62
2022/08/04 12:48:32;;;;;;;0.70;0.70;;;38.60;77.90;;;;;;5048047;28;20761;-63
2022/08/04 12:51:00;;;;;;;0.77;0.70;;;38.60;78.10;;;;;;5048306;28;20212;-63
2022/08/04 12:53:32;;;;;;;0.70;0.70;;;38.50;76.70;;;;;;5049580;28;20615;-62
2022/08/04 12:56:00;;;;;;;0.60;0.60;;;38.40;78.50;;;;;;5042630;28;20254;-63
2022/08/04 12:58:32;;;;;;;0.60;0.60;;;38.50;78.10;;;;;;5047244;28;20203;-63
2022/08/04 13:01:05;;;;;;;1.63;0.82;;;38.40;77.80;;;;;;5048722;28;20215;-62
2022/08/04 13:03:39;;;;;;;0.63;0.63;;;38.20;77.00;;;;;;5050528;28;20600;-63
2022/08/04 13:06:08;;;;;;;2.28;0.90;;;37.90;78.00;;;;;;5049431;28;20286;-63
2022/08/04 13:08:39;;;;;;;0.60;0.60;;;38.10;78.00;;;;;;5049467;28;20938;-61
2022/08/04 13:11:07;;;;;;;0.98;0.90;;;38.20;77.90;;;;;;5049417;28;20204;-61
2022/08/04 13:13:36;;;;;;;0.73;0.73;;;38.30;77.90;;;;;;5049780;28;20223;-61
2022/08/04 13:16:08;;;;;;;0.70;0.70;;;38.40;76.50;;;;;;5052120;28;20695;-62
2022/08/04 13:18:38;;;;;;;0.80;0.80;;;38.40;77.00;;;;;;5051795;28;20223;-62
2022/08/04 13:21:11;;;;;;;0.77;0.77;;;38.60;77.20;;;;;;5050761;28;20207;-62
2022/08/04 13:23:39;;;;;;;0.70;0.70;;;38.60;77.10;;;;;;5047753;28;20235;-63
2022/08/04 13:26:07;;;;;;;0.80;0.80;;;38.60;76.50;;;;;;5050352;28;20336;-62
2022/08/04 13:28:39;;;;;;;0.82;0.60;;;38.60;76.60;;;;;;5051191;28;20212;-61
2022/08/04 13:31:13;;;;;;;0.85;0.77;;;38.70;76.30;;;;;;5052388;28;20295;-61
2022/08/04 13:33:42;;;;;;;0.80;0.80;;;38.50;74.80;;;;;;5050354;28;20204;-63
2022/08/04 13:36:10;;;;;;;0.65;0.65;;;38.30;73.40;;;;;;5040716;28;20713;-62
2022/08/04 13:38:45;;;;;;;0.70;0.70;;;38.10;75.10;;;;;;5043546;28;20622;-62
2022/08/04 13:41:12;;;;;;;0.75;0.75;;;38.20;75.00;;;;;;5045604;28;20199;-63